sensor_id;sensor_type;location;lat;lon;timestamp;pressure;altitude;pressure_sealevel;temperature;humidity
79538;BME280;68989;52.032;5.152;2024-03-08T00:01:32;102028.07;;;9.24;57.43
79538;BME280;68989;52.032;5.152;2024-03-08T00:04:00;102023.58;;;9.20;57.57
79538;BME280;68989;52.032;5.152;2024-03-08T00:06:27;102019.43;;;9.17;57.54
79538;BME280;68989;52.032;5.152;2024-03-08T00:08:55;102019.91;;;9.11;57.46
79538;BME280;68989;52.032;5.152;2024-03-08T00:11:22;102020.43;;;9.09;57.96
79538;BME280;68989;52.032;5.152;2024-03-08T00:13:49;102013.86;;;9.12;57.79
79538;BME280;68989;52.032;5.152;2024-03-08T00:16:16;102009.12;;;9.07;57.84
79538;BME280;68989;52.032;5.152;2024-03-08T00:18:43;102005.43;;;9.07;57.64
79538;BME280;68989;52.032;5.152;2024-03-08T00:21:10;102008.11;;;9.03;57.44
79538;BME280;68989;52.032;5.152;2024-03-08T00:23:37;102005.58;;;8.98;57.75
79538;BME280;68989;52.032;5.152;2024-03-08T00:26:05;102004.98;;;8.95;57.26
79538;BME280;68989;52.032;5.152;2024-03-08T00:28:32;102001.57;;;8.89;57.18
79538;BME280;68989;52.032;5.152;2024-03-08T00:30:58;102001.76;;;8.86;57.83
79538;BME280;68989;52.032;5.152;2024-03-08T00:33:26;102000.33;;;8.86;57.90
79538;BME280;68989;52.032;5.152;2024-03-08T00:35:52;101995.75;;;8.88;57.65
79538;BME280;68989;52.032;5.152;2024-03-08T00:38:19;101993.59;;;8.89;57.36
79538;BME280;68989;52.032;5.152;2024-03-08T00:40:46;101997.07;;;8.83;57.28
79538;BME280;68989;52.032;5.152;2024-03-08T00:43:14;101995.46;;;8.81;57.51
79538;BME280;68989;52.032;5.152;2024-03-08T00:45:41;101993.99;;;8.80;57.82
79538;BME280;68989;52.032;5.152;2024-03-08T00:48:09;101994.24;;;8.80;57.24
79538;BME280;68989;52.032;5.152;2024-03-08T00:50:37;101987.81;;;8.75;57.48
79538;BME280;68989;52.032;5.152;2024-03-08T00:53:04;101983.45;;;8.72;57.26
79538;BME280;68989;52.032;5.152;2024-03-08T00:55:31;101981.59;;;8.72;58.05
79538;BME280;68989;52.032;5.152;2024-03-08T00:57:58;101976.35;;;8.72;57.50
79538;BME280;68989;52.032;5.152;2024-03-08T01:00:25;101971.19;;;8.73;57.38
79538;BME280;68989;52.032;5.152;2024-03-08T01:02:52;101967.31;;;8.69;57.29
79538;BME280;68989;52.032;5.152;2024-03-08T01:05:20;101964.38;;;8.63;57.63
79538;BME280;68989;52.032;5.152;2024-03-08T01:07:49;101957.15;;;8.51;57.35
79538;BME280;68989;52.032;5.152;2024-03-08T01:10:17;101954.87;;;8.46;58.02
79538;BME280;68989;52.032;5.152;2024-03-08T01:12:44;101954.31;;;8.44;57.71
79538;BME280;68989;52.032;5.152;2024-03-08T01:15:11;101953.07;;;8.38;57.41
79538;BME280;68989;52.032;5.152;2024-03-08T01:17:38;101951.86;;;8.36;57.78
79538;BME280;68989;52.032;5.152;2024-03-08T01:20:07;101949.20;;;8.35;57.96
79538;BME280;68989;52.032;5.152;2024-03-08T01:22:34;101943.62;;;8.27;58.21
79538;BME280;68989;52.032;5.152;2024-03-08T01:25:00;101938.58;;;8.26;58.41
79538;BME280;68989;52.032;5.152;2024-03-08T01:27:27;101935.84;;;8.30;58.52
79538;BME280;68989;52.032;5.152;2024-03-08T01:29:54;101938.08;;;8.38;57.88
79538;BME280;68989;52.032;5.152;2024-03-08T01:32:21;101936.18;;;8.40;57.56
79538;BME280;68989;52.032;5.152;2024-03-08T01:34:49;101930.61;;;8.39;57.64
79538;BME280;68989;52.032;5.152;2024-03-08T01:37:16;101931.04;;;8.42;57.48
79538;BME280;68989;52.032;5.152;2024-03-08T01:39:43;101923.82;;;8.41;57.38
79538;BME280;68989;52.032;5.152;2024-03-08T01:42:10;101922.16;;;8.40;57.36
79538;BME280;68989;52.032;5.152;2024-03-08T01:44:37;101918.12;;;8.37;57.25
79538;BME280;68989;52.032;5.152;2024-03-08T01:47:05;101914.90;;;8.33;57.59
79538;BME280;68989;52.032;5.152;2024-03-08T01:49:32;101918.83;;;8.34;57.81
79538;BME280;68989;52.032;5.152;2024-03-08T01:52:00;101908.80;;;8.30;57.05
79538;BME280;68989;52.032;5.152;2024-03-08T01:54:27;101908.14;;;8.25;57.51
79538;BME280;68989;52.032;5.152;2024-03-08T01:56:54;101908.66;;;8.24;57.45
79538;BME280;68989;52.032;5.152;2024-03-08T01:59:21;101908.99;;;8.23;57.60
79538;BME280;68989;52.032;5.152;2024-03-08T02:02:11;101907.34;;;8.25;57.47
79538;BME280;68989;52.032;5.152;2024-03-08T02:04:41;101905.46;;;8.29;57.53
79538;BME280;68989;52.032;5.152;2024-03-08T02:07:09;101906.34;;;8.33;57.25
79538;BME280;68989;52.032;5.152;2024-03-08T02:09:36;101903.06;;;8.29;56.81
79538;BME280;68989;52.032;5.152;2024-03-08T02:12:03;101899.63;;;8.28;57.41
79538;BME280;68989;52.032;5.152;2024-03-08T02:14:31;101890.47;;;8.22;57.00
79538;BME280;68989;52.032;5.152;2024-03-08T02:17:00;101885.33;;;8.19;57.37
79538;BME280;68989;52.032;5.152;2024-03-08T02:19:27;101885.27;;;8.13;57.54
79538;BME280;68989;52.032;5.152;2024-03-08T02:21:55;101881.60;;;8.12;57.35
79538;BME280;68989;52.032;5.152;2024-03-08T02:24:23;101879.15;;;8.09;57.55
79538;BME280;68989;52.032;5.152;2024-03-08T02:26:50;101877.07;;;8.12;57.67
79538;BME280;68989;52.032;5.152;2024-03-08T02:29:17;101877.30;;;8.16;57.51
79538;BME280;68989;52.032;5.152;2024-03-08T02:31:45;101868.48;;;8.17;57.13
79538;BME280;68989;52.032;5.152;2024-03-08T02:34:11;101862.33;;;8.17;57.34
79538;BME280;68989;52.032;5.152;2024-03-08T02:36:39;101858.21;;;8.15;57.14
79538;BME280;68989;52.032;5.152;2024-03-08T02:39:06;101857.09;;;8.16;57.25
79538;BME280;68989;52.032;5.152;2024-03-08T02:41:33;101853.01;;;8.12;56.43
79538;BME280;68989;52.032;5.152;2024-03-08T02:44:00;101855.65;;;8.06;56.81
79538;BME280;68989;52.032;5.152;2024-03-08T02:46:27;101851.38;;;8.06;56.97
79538;BME280;68989;52.032;5.152;2024-03-08T02:48:54;101846.58;;;8.01;56.48
79538;BME280;68989;52.032;5.152;2024-03-08T02:51:21;101847.82;;;7.99;57.22
79538;BME280;68989;52.032;5.152;2024-03-08T02:53:47;101844.03;;;8.01;57.07
79538;BME280;68989;52.032;5.152;2024-03-08T02:56:15;101838.33;;;8.03;57.38
79538;BME280;68989;52.032;5.152;2024-03-08T02:58:42;101836.16;;;8.08;56.86
79538;BME280;68989;52.032;5.152;2024-03-08T03:01:09;101833.93;;;8.08;57.00
79538;BME280;68989;52.032;5.152;2024-03-08T03:03:36;101830.32;;;8.05;56.68
79538;BME280;68989;52.032;5.152;2024-03-08T03:06:03;101826.04;;;7.95;56.77
79538;BME280;68989;52.032;5.152;2024-03-08T03:08:30;101822.34;;;7.91;56.30
79538;BME280;68989;52.032;5.152;2024-03-08T03:10:57;101826.05;;;7.85;56.93
79538;BME280;68989;52.032;5.152;2024-03-08T03:13:24;101825.61;;;7.83;56.79
79538;BME280;68989;52.032;5.152;2024-03-08T03:15:51;101824.02;;;7.78;57.30
79538;BME280;68989;52.032;5.152;2024-03-08T03:18:18;101820.84;;;7.79;56.95
79538;BME280;68989;52.032;5.152;2024-03-08T03:20:45;101818.49;;;7.79;57.16
79538;BME280;68989;52.032;5.152;2024-03-08T03:23:12;101816.13;;;7.77;56.99
79538;BME280;68989;52.032;5.152;2024-03-08T03:25:40;101818.92;;;7.76;57.12
79538;BME280;68989;52.032;5.152;2024-03-08T03:28:06;101811.27;;;7.77;56.78
79538;BME280;68989;52.032;5.152;2024-03-08T03:30:33;101805.70;;;7.79;57.13
79538;BME280;68989;52.032;5.152;2024-03-08T03:33:00;101805.86;;;7.85;56.75
79538;BME280;68989;52.032;5.152;2024-03-08T03:35:28;101799.47;;;7.86;56.91
79538;BME280;68989;52.032;5.152;2024-03-08T03:37:55;101797.08;;;7.88;56.80
79538;BME280;68989;52.032;5.152;2024-03-08T03:40:22;101793.14;;;7.90;56.21
79538;BME280;68989;52.032;5.152;2024-03-08T03:42:49;101790.11;;;7.89;56.21
79538;BME280;68989;52.032;5.152;2024-03-08T03:45:16;101790.68;;;7.87;56.47
79538;BME280;68989;52.032;5.152;2024-03-08T03:47:43;101788.48;;;7.83;56.35
79538;BME280;68989;52.032;5.152;2024-03-08T03:50:10;101788.36;;;7.84;56.38
79538;BME280;68989;52.032;5.152;2024-03-08T03:52:37;101788.72;;;7.86;56.18
79538;BME280;68989;52.032;5.152;2024-03-08T03:55:04;101790.82;;;7.85;56.26
79538;BME280;68989;52.032;5.152;2024-03-08T03:57:32;101787.86;;;7.81;55.87
79538;BME280;68989;52.032;5.152;2024-03-08T03:59:59;101788.54;;;7.76;56.34
79538;BME280;68989;52.032;5.152;2024-03-08T04:02:26;101787.57;;;7.76;55.69
79538;BME280;68989;52.032;5.152;2024-03-08T04:04:53;101787.06;;;7.76;55.97
79538;BME280;68989;52.032;5.152;2024-03-08T04:07:20;101784.87;;;7.73;56.19
79538;BME280;68989;52.032;5.152;2024-03-08T04:09:47;101783.69;;;7.71;56.30
79538;BME280;68989;52.032;5.152;2024-03-08T04:12:15;101782.02;;;7.70;55.50
79538;BME280;68989;52.032;5.152;2024-03-08T04:14:42;101778.26;;;7.64;55.95
79538;BME280;68989;52.032;5.152;2024-03-08T04:17:10;101779.48;;;7.61;55.59
79538;BME280;68989;52.032;5.152;2024-03-08T04:19:37;101776.84;;;7.58;56.17
79538;BME280;68989;52.032;5.152;2024-03-08T04:22:05;101777.33;;;7.49;56.00
79538;BME280;68989;52.032;5.152;2024-03-08T04:24:33;101776.84;;;7.45;56.30
79538;BME280;68989;52.032;5.152;2024-03-08T04:27:00;101772.90;;;7.40;55.97
79538;BME280;68989;52.032;5.152;2024-03-08T04:29:26;101771.75;;;7.30;56.35
79538;BME280;68989;52.032;5.152;2024-03-08T04:31:54;101774.15;;;7.30;56.91
79538;BME280;68989;52.032;5.152;2024-03-08T04:34:21;101770.19;;;7.34;56.81
79538;BME280;68989;52.032;5.152;2024-03-08T04:36:48;101767.65;;;7.39;56.81
79538;BME280;68989;52.032;5.152;2024-03-08T04:39:15;101768.22;;;7.42;56.28
79538;BME280;68989;52.032;5.152;2024-03-08T04:41:42;101765.02;;;7.45;56.44
79538;BME280;68989;52.032;5.152;2024-03-08T04:44:10;101761.07;;;7.43;56.06
79538;BME280;68989;52.032;5.152;2024-03-08T04:46:37;101757.13;;;7.40;56.15
79538;BME280;68989;52.032;5.152;2024-03-08T04:49:05;101756.07;;;7.33;56.04
79538;BME280;68989;52.032;5.152;2024-03-08T04:51:32;101749.35;;;7.28;56.11
79538;BME280;68989;52.032;5.152;2024-03-08T04:53:59;101748.35;;;7.18;56.03
79538;BME280;68989;52.032;5.152;2024-03-08T04:56:26;101749.86;;;7.14;56.87
79538;BME280;68989;52.032;5.152;2024-03-08T04:58:54;101749.96;;;7.13;56.51
79538;BME280;68989;52.032;5.152;2024-03-08T05:01:20;101748.58;;;7.11;56.07
79538;BME280;68989;52.032;5.152;2024-03-08T05:03:47;101748.03;;;7.04;56.96
79538;BME280;68989;52.032;5.152;2024-03-08T05:06:15;101748.02;;;7.08;56.81
79538;BME280;68989;52.032;5.152;2024-03-08T05:08:42;101745.76;;;7.14;56.67
79538;BME280;68989;52.032;5.152;2024-03-08T05:11:10;101744.01;;;7.14;56.24
79538;BME280;68989;52.032;5.152;2024-03-08T05:13:36;101744.66;;;7.11;56.17
79538;BME280;68989;52.032;5.152;2024-03-08T05:16:04;101743.34;;;7.13;56.76
79538;BME280;68989;52.032;5.152;2024-03-08T05:18:31;101742.31;;;7.16;56.14
79538;BME280;68989;52.032;5.152;2024-03-08T05:20:59;101741.69;;;7.16;56.10
79538;BME280;68989;52.032;5.152;2024-03-08T05:23:26;101742.60;;;7.10;56.04
79538;BME280;68989;52.032;5.152;2024-03-08T05:25:52;101739.32;;;7.07;56.44
79538;BME280;68989;52.032;5.152;2024-03-08T05:28:20;101738.52;;;7.03;56.37
79538;BME280;68989;52.032;5.152;2024-03-08T05:30:47;101736.92;;;6.97;56.61
79538;BME280;68989;52.032;5.152;2024-03-08T05:33:14;101737.23;;;7.00;56.40
79538;BME280;68989;52.032;5.152;2024-03-08T05:35:41;101739.41;;;7.02;56.39
79538;BME280;68989;52.032;5.152;2024-03-08T05:38:08;101736.87;;;7.01;56.66
79538;BME280;68989;52.032;5.152;2024-03-08T05:40:35;101734.53;;;6.99;56.68
79538;BME280;68989;52.032;5.152;2024-03-08T05:43:02;101736.98;;;7.01;56.71
79538;BME280;68989;52.032;5.152;2024-03-08T05:45:29;101732.56;;;7.06;56.55
79538;BME280;68989;52.032;5.152;2024-03-08T05:47:57;101729.03;;;7.07;56.49
79538;BME280;68989;52.032;5.152;2024-03-08T05:50:24;101727.36;;;7.05;55.89
79538;BME280;68989;52.032;5.152;2024-03-08T05:52:51;101726.20;;;7.01;56.12
79538;BME280;68989;52.032;5.152;2024-03-08T05:55:19;101720.77;;;6.96;56.01
79538;BME280;68989;52.032;5.152;2024-03-08T05:57:46;101718.60;;;6.89;56.22
79538;BME280;68989;52.032;5.152;2024-03-08T06:00:13;101719.25;;;6.83;56.17
79538;BME280;68989;52.032;5.152;2024-03-08T06:02:40;101719.25;;;6.81;56.87
79538;BME280;68989;52.032;5.152;2024-03-08T06:05:09;101712.87;;;6.82;56.67
79538;BME280;68989;52.032;5.152;2024-03-08T06:07:36;101711.10;;;6.79;56.20
79538;BME280;68989;52.032;5.152;2024-03-08T06:10:04;101708.71;;;6.70;56.65
79538;BME280;68989;52.032;5.152;2024-03-08T06:12:31;101711.17;;;6.72;57.00
79538;BME280;68989;52.032;5.152;2024-03-08T06:14:59;101708.63;;;6.80;57.10
79538;BME280;68989;52.032;5.152;2024-03-08T06:17:26;101709.59;;;6.87;56.57
79538;BME280;68989;52.032;5.152;2024-03-08T06:19:53;101706.79;;;6.87;56.63
79538;BME280;68989;52.032;5.152;2024-03-08T06:22:20;101707.74;;;6.87;56.19
79538;BME280;68989;52.032;5.152;2024-03-08T06:24:48;101705.15;;;6.86;56.36
79538;BME280;68989;52.032;5.152;2024-03-08T06:27:15;101707.18;;;6.87;56.32
79538;BME280;68989;52.032;5.152;2024-03-08T06:29:42;101705.78;;;6.88;56.44
79538;BME280;68989;52.032;5.152;2024-03-08T06:32:09;101708.78;;;6.87;56.32
79538;BME280;68989;52.032;5.152;2024-03-08T06:34:36;101709.41;;;6.82;56.34
79538;BME280;68989;52.032;5.152;2024-03-08T06:37:04;101709.52;;;6.76;55.41
79538;BME280;68989;52.032;5.152;2024-03-08T06:39:31;101705.19;;;6.57;56.41
79538;BME280;68989;52.032;5.152;2024-03-08T06:41:58;101705.60;;;6.71;55.93
79538;BME280;68989;52.032;5.152;2024-03-08T06:44:25;101700.45;;;6.77;56.29
79538;BME280;68989;52.032;5.152;2024-03-08T06:46:52;101698.75;;;6.78;56.10
79538;BME280;68989;52.032;5.152;2024-03-08T06:49:20;101697.64;;;6.71;56.18
79538;BME280;68989;52.032;5.152;2024-03-08T06:51:47;101697.74;;;6.66;56.32
79538;BME280;68989;52.032;5.152;2024-03-08T06:54:14;101696.12;;;6.63;56.45
79538;BME280;68989;52.032;5.152;2024-03-08T06:56:41;101695.73;;;6.61;56.66
79538;BME280;68989;52.032;5.152;2024-03-08T06:59:07;101693.29;;;6.65;57.37
79538;BME280;68989;52.032;5.152;2024-03-08T07:01:35;101693.41;;;6.73;57.07
79538;BME280;68989;52.032;5.152;2024-03-08T07:04:02;101690.61;;;6.67;56.35
79538;BME280;68989;52.032;5.152;2024-03-08T07:06:28;101692.63;;;6.58;56.72
79538;BME280;68989;52.032;5.152;2024-03-08T07:08:56;101691.47;;;6.56;56.81
79538;BME280;68989;52.032;5.152;2024-03-08T07:11:23;101688.67;;;6.56;57.12
79538;BME280;68989;52.032;5.152;2024-03-08T07:13:49;101688.24;;;6.63;57.44
79538;BME280;68989;52.032;5.152;2024-03-08T07:16:16;101685.13;;;6.67;57.23
79538;BME280;68989;52.032;5.152;2024-03-08T07:18:44;101682.59;;;6.71;57.33
79538;BME280;68989;52.032;5.152;2024-03-08T07:21:11;101684.98;;;6.77;56.77
79538;BME280;68989;52.032;5.152;2024-03-08T07:23:38;101683.27;;;6.77;56.69
79538;BME280;68989;52.032;5.152;2024-03-08T07:26:04;101679.69;;;6.79;56.57
79538;BME280;68989;52.032;5.152;2024-03-08T07:28:32;101676.35;;;6.78;56.72
79538;BME280;68989;52.032;5.152;2024-03-08T07:30:59;101672.08;;;6.77;56.97
79538;BME280;68989;52.032;5.152;2024-03-08T07:33:26;101672.08;;;6.76;56.92
79538;BME280;68989;52.032;5.152;2024-03-08T07:35:52;101669.50;;;6.74;57.17
79538;BME280;68989;52.032;5.152;2024-03-08T07:38:20;101664.44;;;6.77;57.17
79538;BME280;68989;52.032;5.152;2024-03-08T07:40:47;101655.30;;;6.87;57.20
79538;BME280;68989;52.032;5.152;2024-03-08T07:43:14;101653.29;;;6.87;56.75
79538;BME280;68989;52.032;5.152;2024-03-08T07:45:42;101653.08;;;6.85;56.62
79538;BME280;68989;52.032;5.152;2024-03-08T07:48:09;101652.93;;;6.81;56.84
79538;BME280;68989;52.032;5.152;2024-03-08T07:50:36;101647.16;;;6.85;57.45
79538;BME280;68989;52.032;5.152;2024-03-08T07:53:04;101648.99;;;6.88;57.03
79538;BME280;68989;52.032;5.152;2024-03-08T07:55:31;101644.40;;;6.95;57.17
79538;BME280;68989;52.032;5.152;2024-03-08T07:57:58;101646.07;;;7.02;56.97
79538;BME280;68989;52.032;5.152;2024-03-08T08:00:25;101645.52;;;7.12;57.34
79538;BME280;68989;52.032;5.152;2024-03-08T08:02:53;101645.28;;;7.14;56.79
79538;BME280;68989;52.032;5.152;2024-03-08T08:05:20;101642.22;;;7.18;56.76
79538;BME280;68989;52.032;5.152;2024-03-08T08:07:47;101639.58;;;7.16;56.52
79538;BME280;68989;52.032;5.152;2024-03-08T08:10:15;101633.96;;;7.14;56.62
79538;BME280;68989;52.032;5.152;2024-03-08T08:12:43;101635.55;;;7.18;56.89
79538;BME280;68989;52.032;5.152;2024-03-08T08:15:11;101634.57;;;7.26;56.66
79538;BME280;68989;52.032;5.152;2024-03-08T08:17:38;101632.64;;;7.22;56.36
79538;BME280;68989;52.032;5.152;2024-03-08T08:20:06;101630.27;;;7.25;56.63
79538;BME280;68989;52.032;5.152;2024-03-08T08:22:33;101626.32;;;7.31;56.82
79538;BME280;68989;52.032;5.152;2024-03-08T08:25:00;101622.50;;;7.41;56.78
79538;BME280;68989;52.032;5.152;2024-03-08T08:27:27;101620.91;;;7.46;56.61
79538;BME280;68989;52.032;5.152;2024-03-08T08:29:54;101613.07;;;7.52;56.32
79538;BME280;68989;52.032;5.152;2024-03-08T08:32:21;101613.80;;;7.59;56.26
79538;BME280;68989;52.032;5.152;2024-03-08T08:34:48;101610.67;;;7.52;56.22
79538;BME280;68989;52.032;5.152;2024-03-08T08:37:15;101608.63;;;7.56;56.32
79538;BME280;68989;52.032;5.152;2024-03-08T08:39:43;101600.10;;;7.65;56.50
79538;BME280;68989;52.032;5.152;2024-03-08T08:42:10;101595.83;;;7.73;56.43
79538;BME280;68989;52.032;5.152;2024-03-08T08:44:37;101598.57;;;7.73;55.62
79538;BME280;68989;52.032;5.152;2024-03-08T08:47:05;101592.72;;;7.77;55.92
79538;BME280;68989;52.032;5.152;2024-03-08T08:49:32;101589.09;;;7.78;55.61
79538;BME280;68989;52.032;5.152;2024-03-08T08:51:59;101586.21;;;7.75;55.61
79538;BME280;68989;52.032;5.152;2024-03-08T08:54:26;101585.66;;;7.80;55.98
79538;BME280;68989;52.032;5.152;2024-03-08T08:56:53;101582.87;;;7.81;55.53
79538;BME280;68989;52.032;5.152;2024-03-08T08:59:20;101576.88;;;7.81;55.78
79538;BME280;68989;52.032;5.152;2024-03-08T09:01:47;101574.89;;;7.86;55.81
79538;BME280;68989;52.032;5.152;2024-03-08T09:04:14;101570.14;;;7.89;55.63
79538;BME280;68989;52.032;5.152;2024-03-08T09:06:41;101567.56;;;8.00;55.83
79538;BME280;68989;52.032;5.152;2024-03-08T09:09:08;101568.47;;;8.10;55.86
79538;BME280;68989;52.032;5.152;2024-03-08T09:11:36;101562.96;;;8.16;55.32
79538;BME280;68989;52.032;5.152;2024-03-08T09:14:02;101561.07;;;8.22;55.36
79538;BME280;68989;52.032;5.152;2024-03-08T09:16:30;101553.30;;;8.27;54.93
79538;BME280;68989;52.032;5.152;2024-03-08T09:18:57;101551.67;;;8.34;55.16
79538;BME280;68989;52.032;5.152;2024-03-08T09:21:24;101550.33;;;8.38;54.97
79538;BME280;68989;52.032;5.152;2024-03-08T09:23:52;101546.82;;;8.44;55.12
79538;BME280;68989;52.032;5.152;2024-03-08T09:26:19;101549.16;;;8.52;55.28
79538;BME280;68989;52.032;5.152;2024-03-08T09:28:46;101548.41;;;8.61;55.36
79538;BME280;68989;52.032;5.152;2024-03-08T09:31:14;101540.99;;;8.65;54.72
79538;BME280;68989;52.032;5.152;2024-03-08T09:33:42;101533.43;;;8.74;54.80
79538;BME280;68989;52.032;5.152;2024-03-08T09:36:09;101530.06;;;8.81;54.80
79538;BME280;68989;52.032;5.152;2024-03-08T09:38:36;101525.10;;;8.87;54.66
79538;BME280;68989;52.032;5.152;2024-03-08T09:41:03;101522.63;;;8.91;54.09
79538;BME280;68989;52.032;5.152;2024-03-08T09:43:30;101519.96;;;8.93;53.88
79538;BME280;68989;52.032;5.152;2024-03-08T09:45:58;101517.80;;;8.98;54.16
79538;BME280;68989;52.032;5.152;2024-03-08T09:48:25;101509.89;;;9.01;53.86
79538;BME280;68989;52.032;5.152;2024-03-08T09:50:54;101506.25;;;9.09;54.04
79538;BME280;68989;52.032;5.152;2024-03-08T09:53:21;101501.64;;;9.20;54.16
79538;BME280;68989;52.032;5.152;2024-03-08T09:55:48;101498.70;;;9.31;54.03
79538;BME280;68989;52.032;5.152;2024-03-08T09:58:16;101496.99;;;9.34;53.47
79538;BME280;68989;52.032;5.152;2024-03-08T10:00:42;101485.01;;;9.36;53.67
79538;BME280;68989;52.032;5.152;2024-03-08T10:03:10;101488.20;;;9.43;53.24
79538;BME280;68989;52.032;5.152;2024-03-08T10:05:37;101481.00;;;9.49;53.37
79538;BME280;68989;52.032;5.152;2024-03-08T10:08:05;101475.94;;;9.53;53.32
79538;BME280;68989;52.032;5.152;2024-03-08T10:10:33;101472.75;;;9.61;53.78
79538;BME280;68989;52.032;5.152;2024-03-08T10:13:01;101464.70;;;9.67;53.45
79538;BME280;68989;52.032;5.152;2024-03-08T10:15:28;101462.20;;;9.71;53.20
79538;BME280;68989;52.032;5.152;2024-03-08T10:17:56;101457.24;;;9.71;52.79
79538;BME280;68989;52.032;5.152;2024-03-08T10:20:24;101450.87;;;9.73;53.34
79538;BME280;68989;52.032;5.152;2024-03-08T10:22:52;101437.38;;;9.78;52.78
79538;BME280;68989;52.032;5.152;2024-03-08T10:25:19;101437.02;;;9.80;52.75
79538;BME280;68989;52.032;5.152;2024-03-08T10:27:46;101429.70;;;9.81;52.42
79538;BME280;68989;52.032;5.152;2024-03-08T10:30:15;101427.42;;;9.87;53.12
79538;BME280;68989;52.032;5.152;2024-03-08T10:32:42;101420.81;;;9.92;52.68
79538;BME280;68989;52.032;5.152;2024-03-08T10:35:09;101413.01;;;9.94;52.26
79538;BME280;68989;52.032;5.152;2024-03-08T10:37:43;101403.83;;;9.92;51.64
79538;BME280;68989;52.032;5.152;2024-03-08T10:40:15;101403.35;;;9.97;52.33
79538;BME280;68989;52.032;5.152;2024-03-08T10:42:52;101402.97;;;10.10;52.69
79538;BME280;68989;52.032;5.152;2024-03-08T10:45:34;101396.08;;;10.29;52.20
79538;BME280;68989;52.032;5.152;2024-03-08T10:48:10;101394.31;;;10.49;51.82
79538;BME280;68989;52.032;5.152;2024-03-08T10:50:44;101390.06;;;10.66;50.87
79538;BME280;68989;52.032;5.152;2024-03-08T10:53:11;101387.51;;;10.79;50.32
79538;BME280;68989;52.032;5.152;2024-03-08T10:55:40;101380.90;;;10.97;50.67
79538;BME280;68989;52.032;5.152;2024-03-08T10:58:07;101367.44;;;11.21;50.68
79538;BME280;68989;52.032;5.152;2024-03-08T11:00:35;101361.23;;;11.42;49.43
79538;BME280;68989;52.032;5.152;2024-03-08T11:03:02;101360.06;;;11.60;49.27
79538;BME280;68989;52.032;5.152;2024-03-08T11:05:36;101348.04;;;11.75;48.69
79538;BME280;68989;52.032;5.152;2024-03-08T11:08:15;101347.97;;;11.89;48.99
79538;BME280;68989;52.032;5.152;2024-03-08T11:10:47;101338.76;;;12.07;47.83
79538;BME280;68989;52.032;5.152;2024-03-08T11:13:32;101328.04;;;12.19;47.66
79538;BME280;68989;52.032;5.152;2024-03-08T11:15:59;101319.13;;;12.32;46.43
79538;BME280;68989;52.032;5.152;2024-03-08T11:18:27;101311.39;;;12.33;45.81
79538;BME280;68989;52.032;5.152;2024-03-08T11:20:54;101308.18;;;12.41;46.46
79538;BME280;68989;52.032;5.152;2024-03-08T11:23:23;101296.48;;;12.47;45.34
79538;BME280;68989;52.032;5.152;2024-03-08T11:25:50;101285.18;;;12.55;45.46
79538;BME280;68989;52.032;5.152;2024-03-08T11:28:18;101290.37;;;12.67;45.56
79538;BME280;68989;52.032;5.152;2024-03-08T11:30:46;101281.93;;;12.75;45.27
79538;BME280;68989;52.032;5.152;2024-03-08T11:33:15;101283.31;;;12.87;44.67
79538;BME280;68989;52.032;5.152;2024-03-08T11:35:43;101264.28;;;12.95;45.00
79538;BME280;68989;52.032;5.152;2024-03-08T11:38:10;101265.62;;;13.11;44.87
79538;BME280;68989;52.032;5.152;2024-03-08T11:40:37;101264.90;;;13.18;44.38
79538;BME280;68989;52.032;5.152;2024-03-08T11:43:06;101263.16;;;13.21;44.54
79538;BME280;68989;52.032;5.152;2024-03-08T11:45:34;101255.81;;;13.25;44.63
79538;BME280;68989;52.032;5.152;2024-03-08T11:48:02;101260.81;;;13.19;43.59
79538;BME280;68989;52.032;5.152;2024-03-08T11:50:29;101258.32;;;13.14;44.20
79538;BME280;68989;52.032;5.152;2024-03-08T11:53:00;101260.16;;;13.17;44.32
79538;BME280;68989;52.032;5.152;2024-03-08T11:55:28;101253.10;;;13.18;44.53
79538;BME280;68989;52.032;5.152;2024-03-08T11:58:01;101255.01;;;13.14;43.47
79538;BME280;68989;52.032;5.152;2024-03-08T12:00:28;101252.92;;;13.08;42.96
79538;BME280;68989;52.032;5.152;2024-03-08T12:03:01;101239.44;;;13.08;43.36
79538;BME280;68989;52.032;5.152;2024-03-08T12:05:29;101241.07;;;13.16;43.99
79538;BME280;68989;52.032;5.152;2024-03-08T12:07:56;101246.51;;;13.26;44.56
79538;BME280;68989;52.032;5.152;2024-03-08T12:10:24;101244.01;;;13.37;44.30
79538;BME280;68989;52.032;5.152;2024-03-08T12:12:52;101236.59;;;13.52;44.58
79538;BME280;68989;52.032;5.152;2024-03-08T12:15:22;101228.98;;;13.65;44.68
79538;BME280;68989;52.032;5.152;2024-03-08T12:17:50;101234.39;;;13.78;44.27
79538;BME280;68989;52.032;5.152;2024-03-08T12:20:19;101229.79;;;13.96;43.72
79538;BME280;68989;52.032;5.152;2024-03-08T12:22:46;101226.90;;;14.11;43.59
79538;BME280;68989;52.032;5.152;2024-03-08T12:25:13;101227.43;;;14.20;42.96
79538;BME280;68989;52.032;5.152;2024-03-08T12:27:41;101214.89;;;14.33;43.56
79538;BME280;68989;52.032;5.152;2024-03-08T12:30:26;101218.54;;;14.41;42.74
79538;BME280;68989;52.032;5.152;2024-03-08T12:32:55;101208.90;;;14.56;42.68
79538;BME280;68989;52.032;5.152;2024-03-08T12:35:24;101212.36;;;14.72;41.84
79538;BME280;68989;52.032;5.152;2024-03-08T12:37:53;101204.79;;;14.85;42.66
79538;BME280;68989;52.032;5.152;2024-03-08T12:40:26;101195.11;;;14.98;41.85
79538;BME280;68989;52.032;5.152;2024-03-08T12:42:53;101190.60;;;15.06;41.45
79538;BME280;68989;52.032;5.152;2024-03-08T12:45:20;101181.89;;;15.04;41.13
79538;BME280;68989;52.032;5.152;2024-03-08T12:47:48;101183.11;;;15.10;41.59
79538;BME280;68989;52.032;5.152;2024-03-08T12:50:14;101183.95;;;15.23;41.44
79538;BME280;68989;52.032;5.152;2024-03-08T12:52:41;101180.68;;;15.33;40.64
79538;BME280;68989;52.032;5.152;2024-03-08T12:55:08;101178.16;;;15.40;40.40
79538;BME280;68989;52.032;5.152;2024-03-08T12:57:36;101181.88;;;15.46;41.02
79538;BME280;68989;52.032;5.152;2024-03-08T13:00:04;101166.85;;;15.55;40.22